createdAt,value
2017-01-11T00:01:05.752Z,70.04
2017-01-11T00:02:15.624Z,70.61
2017-01-11T00:03:25.053Z,70.32
2017-01-11T00:04:35.487Z,70.23
2017-01-11T00:05:45.804Z,70.32
2017-01-11T00:06:55.236Z,70.23
2017-01-11T00:08:05.058Z,70.23
2017-01-11T00:09:15.299Z,69.85
2017-01-11T00:10:25.147Z,70.61
2017-01-11T00:11:35.411Z,70.51
2017-01-11T00:12:45.246Z,70.51
2017-01-11T00:13:55.513Z,70.42
2017-01-11T00:15:05.774Z,70.32
2017-01-11T00:16:16.044Z,70.42
2017-01-11T00:17:25.890Z,70.42
2017-01-11T00:18:36.198Z,70.51
2017-01-11T00:19:46.193Z,70.51
2017-01-11T00:20:56.059Z,70.42
2017-01-11T00:22:06.329Z,70.32
2017-01-11T00:23:16.180Z,70.23
2017-01-11T00:24:26.063Z,70.32
2017-01-11T00:25:36.318Z,70.14
2017-01-11T00:26:46.151Z,70.23
2017-01-11T00:27:56.376Z,70.14
2017-01-11T00:29:06.288Z,70.23
2017-01-11T00:30:15.829Z,70.42
2017-01-11T00:31:26.077Z,70.32
2017-01-11T00:32:36.339Z,70.61
2017-01-11T00:33:46.677Z,70.42
2017-01-11T00:34:56.961Z,70.51
2017-01-11T00:36:07.278Z,70.61
2017-01-11T00:37:17.563Z,70.32
2017-01-11T00:38:27.412Z,70.61
2017-01-11T00:39:37.670Z,70.51
2017-01-11T00:40:47.925Z,71.08
2017-01-11T00:41:57.795Z,70.89
2017-01-11T00:43:07.858Z,71.17
2017-01-11T00:44:18.129Z,71.36
2017-01-11T00:45:27.696Z,71.71
2017-01-11T00:46:37.980Z,71.52
2017-01-11T00:47:47.818Z,71.52
2017-01-11T00:48:58.090Z,71.65
2017-01-11T00:50:07.939Z,71.84
2017-01-11T00:51:17.077Z,71.99
2017-01-11T00:52:27.306Z,72.56
2017-01-11T00:53:37.576Z,72.66
2017-01-11T00:54:47.816Z,72.56
2017-01-11T00:55:58.049Z,72.85
2017-01-11T00:57:07.958Z,72.85
2017-01-11T00:58:18.239Z,73.13
2017-01-11T00:59:28.104Z,73.22
2017-01-11T01:00:38.380Z,73.69
2017-01-11T01:01:48.657Z,73.88
2017-01-11T01:02:58.939Z,73.88
2017-01-11T01:04:09.185Z,73.69
2017-01-11T01:05:19.517Z,73.98
2017-01-11T01:06:29.870Z,73.79
2017-01-11T01:07:40.123Z,74.36
2017-01-11T01:08:50.357Z,73.98
2017-01-11T01:10:00.193Z,74.07
2017-01-11T01:11:09.623Z,74.07
2017-01-11T01:12:19.851Z,73.88
2017-01-11T01:13:30.138Z,73.6
2017-01-11T01:14:39.995Z,73.69
2017-01-11T01:15:49.945Z,74.36
2017-01-11T01:16:59.884Z,73.98
2017-01-11T01:18:10.131Z,73.98
2017-01-11T01:19:20.482Z,73.79
2017-01-11T01:20:30.773Z,73.98
2017-01-11T01:21:40.668Z,74.17
2017-01-11T01:22:50.937Z,74.36
2017-01-11T01:24:00.790Z,74.26
2017-01-11T01:25:11.058Z,74.45
2017-01-11T01:26:21.313Z,74.26
2017-01-11T01:27:31.151Z,74.07
2017-01-11T01:28:41.509Z,74.07
2017-01-11T01:29:51.736Z,74.45
2017-01-11T01:31:02.045Z,74.64
2017-01-11T01:32:12.340Z,73.88
2017-01-11T01:33:22.736Z,73.88
2017-01-11T01:34:32.605Z,74.07
2017-01-11T01:35:42.425Z,74.17
2017-01-11T01:36:52.297Z,74.64
2017-01-11T01:38:02.209Z,74.45
2017-01-11T01:39:12.036Z,74.55
2017-01-11T01:40:21.948Z,74.26
2017-01-11T01:41:32.255Z,74.36
2017-01-11T01:42:42.508Z,74.55
2017-01-11T01:43:52.765Z,74.45
2017-01-11T01:45:02.601Z,74.45
2017-01-11T01:46:12.417Z,74.93
2017-01-11T01:47:22.682Z,75.02
2017-01-11T01:48:33.028Z,75.02
2017-01-11T01:49:43.284Z,75.12
2017-01-11T01:50:53.181Z,74.74
2017-01-11T01:52:03.422Z,74.93
2017-01-11T01:53:13.653Z,75.31
2017-01-11T01:54:23.891Z,75.02
2017-01-11T01:55:33.739Z,75.21
2017-01-11T01:56:43.165Z,75.31
2017-01-11T01:57:53.511Z,75.49
2017-01-11T01:59:03.805Z,75.36
2017-01-11T02:00:14.058Z,75.68
2017-01-11T02:01:24.298Z,75.68
2017-01-11T02:02:33.731Z,75.4
2017-01-11T02:03:44.092Z,75.64
2017-01-11T02:04:54.349Z,75.78
2017-01-11T02:06:03.824Z,75.4
2017-01-11T02:07:13.278Z,75.59
2017-01-11T02:08:23.527Z,76.15
2017-01-11T02:09:33.755Z,75.87
2017-01-11T02:10:44.064Z,76.06
2017-01-11T02:11:54.371Z,76.06
2017-01-11T02:13:04.235Z,76.15
2017-01-11T02:14:14.170Z,76.06
2017-01-11T02:15:24.388Z,76.06
2017-01-11T02:16:34.682Z,76.72
2017-01-11T02:17:45.113Z,76.78
2017-01-11T02:18:55.405Z,77.1
2017-01-11T02:20:05.243Z,76.82
2017-01-11T02:21:15.497Z,76.91
2017-01-11T02:22:25.715Z,76.82
2017-01-11T02:23:36.048Z,76.68
2017-01-11T02:24:46.377Z,76.78
2017-01-11T02:25:56.624Z,77.15
2017-01-11T02:27:06.495Z,77.44
2017-01-11T02:28:16.760Z,77.63
2017-01-11T02:29:26.628Z,77.44
2017-01-11T02:30:36.471Z,77.72
2017-01-11T02:31:46.307Z,77.91
2017-01-11T02:32:56.561Z,77.82
2017-01-11T02:34:06.424Z,77.82
2017-01-11T02:35:16.248Z,78.2
2017-01-11T02:36:26.100Z,77.91
2017-01-11T02:37:36.464Z,78.48
2017-01-11T02:38:46.719Z,78.42
2017-01-11T02:39:56.995Z,78.71
2017-01-11T02:41:06.488Z,78.52
2017-01-11T02:42:16.739Z,78.14
2017-01-11T02:43:27.014Z,78.23
2017-01-11T02:44:36.890Z,78.42
2017-01-11T02:45:46.566Z,78.33
2017-01-11T02:46:56.403Z,78.61
2017-01-11T02:48:06.666Z,78.52
2017-01-11T02:49:16.493Z,78.23
2017-01-11T02:50:26.323Z,78.61
2017-01-11T02:51:36.855Z,78.61
2017-01-11T02:52:47.107Z,78.61
2017-01-11T02:53:57.343Z,78.61
2017-01-11T02:55:07.722Z,78.42
2017-01-11T02:56:18.074Z,78.52
2017-01-11T02:57:28.354Z,78.71
2017-01-11T02:58:38.579Z,78.61
2017-01-11T02:59:48.796Z,78.71
2017-01-11T03:00:59.206Z,78.52
2017-01-11T03:02:09.059Z,78.8
2017-01-11T03:03:19.342Z,78.33
2017-01-11T03:04:29.752Z,78.33
2017-01-11T03:05:39.584Z,78.61
2017-01-11T03:06:49.877Z,78.52
2017-01-11T03:08:00.170Z,79.47
2017-01-11T03:09:10.538Z,78.8
2017-01-11T03:10:20.528Z,78.99
2017-01-11T03:11:30.764Z,79.09
2017-01-11T03:12:41.107Z,78.99
2017-01-11T03:13:51.356Z,79.28
2017-01-11T03:15:01.588Z,79.09
2017-01-11T03:16:11.831Z,79.47
2017-01-11T03:17:22.091Z,79.43
2017-01-11T03:18:32.450Z,79.33
2017-01-11T03:19:42.375Z,79.56
2017-01-11T03:20:52.211Z,79.56
2017-01-11T03:22:01.670Z,79.43
2017-01-11T03:23:11.563Z,79.9
2017-01-11T03:24:21.849Z,80.22
2017-01-11T03:25:32.169Z,80.41
2017-01-11T03:26:42.015Z,79.75
2017-01-11T03:27:51.609Z,80.04
2017-01-11T03:29:01.449Z,80.13
2017-01-11T03:30:11.304Z,79.85
2017-01-11T03:31:21.564Z,79.75
2017-01-11T03:32:31.420Z,80.04
2017-01-11T03:33:41.325Z,79.75
2017-01-11T03:34:51.227Z,79.85
2017-01-11T03:36:01.067Z,80.04
2017-01-11T03:37:10.891Z,80.41
2017-01-11T03:38:20.384Z,80.41
2017-01-11T03:39:29.820Z,80.41
2017-01-11T03:40:39.757Z,80.51
2017-01-11T03:41:49.619Z,80.6
2017-01-11T03:42:59.528Z,80.32
2017-01-11T03:44:09.351Z,80.13
2017-01-11T03:45:19.620Z,80.04
2017-01-11T03:46:29.485Z,80.41
2017-01-11T03:47:39.309Z,80.41
2017-01-11T03:48:49.141Z,80.41
2017-01-11T03:49:59.409Z,79.94
2017-01-11T03:51:09.659Z,80.22
2017-01-11T03:52:19.544Z,80.22
2017-01-11T03:53:29.788Z,80.51
2017-01-11T03:54:39.623Z,80.41
2017-01-11T03:55:49.928Z,80.32
2017-01-11T03:56:59.810Z,80.32
2017-01-11T03:58:09.829Z,80.22
2017-01-11T03:59:20.093Z,80.22
2017-01-11T04:00:30.349Z,80.41
2017-01-11T04:01:40.652Z,80.22
2017-01-11T04:02:50.925Z,80.13
2017-01-11T04:04:00.353Z,80.32
2017-01-11T04:05:10.580Z,80.32
2017-01-11T04:06:20.472Z,80.13
2017-01-11T04:07:30.710Z,80.69
2017-01-11T04:08:40.954Z,80.69
2017-01-11T04:09:51.247Z,80.41
2017-01-11T04:11:01.509Z,80.69
2017-01-11T04:12:11.810Z,80.88
2017-01-11T04:13:21.243Z,80.88
2017-01-11T04:14:31.734Z,80.98
2017-01-11T04:15:41.570Z,80.04
2017-01-11T04:16:51.813Z,80.69
2017-01-11T04:18:02.077Z,80.69
2017-01-11T04:19:12.317Z,80.32
2017-01-11T04:20:22.594Z,80.6
2017-01-11T04:21:32.834Z,80.41
2017-01-11T04:22:43.115Z,80.69
2017-01-11T04:23:53.375Z,80.13
2017-01-11T04:25:03.298Z,80.41
2017-01-11T04:26:13.158Z,80.69
2017-01-11T04:27:23.407Z,80.88
2017-01-11T04:28:32.830Z,80.69
2017-01-11T04:29:42.687Z,80.13
2017-01-11T04:30:52.945Z,80.41
2017-01-11T04:32:03.235Z,80.88
2017-01-11T04:33:13.479Z,80.88
2017-01-11T04:34:23.786Z,80.69
2017-01-11T04:35:33.655Z,80.51
2017-01-11T04:36:43.481Z,80.69
2017-01-11T04:37:53.755Z,80.6
2017-01-11T04:39:04.003Z,80.69
2017-01-11T04:40:14.317Z,80.69
2017-01-11T04:41:24.184Z,80.79
2017-01-11T04:42:34.437Z,81.07
2017-01-11T04:43:44.277Z,81.07
2017-01-11T04:44:54.522Z,80.6
2017-01-11T04:46:04.779Z,80.69
2017-01-11T04:47:14.588Z,80.6
2017-01-11T04:48:24.417Z,80.88
2017-01-11T04:49:34.727Z,80.79
2017-01-11T04:50:45.080Z,80.51
2017-01-11T04:51:54.925Z,80.79
2017-01-11T04:53:04.776Z,80.32
2017-01-11T04:54:15.033Z,80.41
2017-01-11T04:55:24.875Z,80.51
2017-01-11T04:56:34.789Z,80.69
2017-01-11T04:57:45.087Z,80.51
2017-01-11T04:58:55.429Z,80.51
2017-01-11T05:00:05.657Z,80.51
2017-01-11T05:01:15.500Z,80.79
2017-01-11T05:02:24.923Z,80.69
2017-01-11T05:03:35.202Z,80.69
2017-01-11T05:04:45.023Z,80.88
2017-01-11T05:05:55.302Z,81.26
2017-01-11T05:07:05.617Z,80.98
2017-01-11T05:08:15.887Z,80.69
2017-01-11T05:09:25.789Z,80.51
2017-01-11T05:10:35.636Z,80.79
2017-01-11T05:11:45.909Z,80.69
2017-01-11T05:12:56.144Z,80.69
2017-01-11T05:14:06.363Z,80.98
2017-01-11T05:15:16.582Z,80.69
2017-01-11T05:16:26.031Z,80.88
2017-01-11T05:17:35.842Z,80.32
2017-01-11T05:18:46.202Z,80.88
2017-01-11T05:19:56.481Z,80.88
2017-01-11T05:21:06.729Z,80.32
2017-01-11T05:22:16.640Z,80.32
2017-01-11T05:23:26.479Z,80.69
2017-01-11T05:24:36.316Z,80.98
2017-01-11T05:25:46.548Z,80.88
2017-01-11T05:26:56.844Z,80.98
2017-01-11T05:28:07.205Z,80.41
2017-01-11T05:29:17.472Z,80.32
2017-01-11T05:30:27.713Z,80.41
2017-01-11T05:31:37.570Z,80.41
2017-01-11T05:32:47.804Z,80.32
2017-01-11T05:33:57.658Z,80.04
2017-01-11T05:35:08.070Z,80.04
2017-01-11T05:36:18.030Z,80.41
2017-01-11T05:37:28.485Z,80.32
2017-01-11T05:38:38.824Z,80.32
2017-01-11T05:39:48.364Z,80.41
2017-01-11T05:40:58.184Z,80.22
2017-01-11T05:42:08.521Z,80.41
2017-01-11T05:43:18.528Z,80.32
2017-01-11T05:44:28.852Z,80.13
2017-01-11T05:45:39.091Z,80.41
2017-01-11T05:46:49.101Z,80.22
2017-01-11T05:47:59.394Z,80.51
2017-01-11T05:49:09.268Z,80.32
2017-01-11T05:50:19.140Z,80.13
2017-01-11T05:51:29.145Z,80.41
2017-01-11T05:52:39.407Z,80.13
2017-01-11T05:53:48.429Z,80.22
2017-01-11T05:54:58.658Z,80.51
2017-01-11T05:56:08.895Z,80.41
2017-01-11T05:57:19.023Z,80.51
2017-01-11T05:58:29.245Z,80.32
2017-01-11T05:59:38.664Z,80.32
2017-01-11T06:00:48.903Z,80.13
2017-01-11T06:01:58.841Z,80.41
2017-01-11T06:03:08.692Z,80.32
2017-01-11T06:04:18.563Z,80.32
2017-01-11T06:05:28.437Z,80.41
2017-01-11T06:06:38.755Z,80.51
2017-01-11T06:07:49.035Z,80.51
2017-01-11T06:08:58.900Z,80.41
2017-01-11T06:10:09.134Z,80.32
2017-01-11T06:11:19.384Z,80.41
2017-01-11T06:12:29.601Z,80.51
2017-01-11T06:13:39.840Z,79.85
2017-01-11T06:14:49.681Z,79.94
2017-01-11T06:15:59.231Z,79.94
2017-01-11T06:17:09.452Z,79.66
2017-01-11T06:18:19.559Z,79.66
2017-01-11T06:19:29.787Z,79.56
2017-01-11T06:20:39.675Z,79.56
2017-01-11T06:21:49.516Z,79.47
2017-01-11T06:22:59.834Z,79.66
2017-01-11T06:24:10.212Z,79.56
2017-01-11T06:25:20.061Z,79.75
2017-01-11T06:26:29.968Z,79.56
2017-01-11T06:27:39.791Z,79.56
2017-01-11T06:28:49.654Z,79.66
2017-01-11T06:29:59.940Z,79.75
2017-01-11T06:31:10.175Z,79.75
2017-01-11T06:32:20.430Z,79.18
2017-01-11T06:33:29.979Z,79.18
2017-01-11T06:34:39.814Z,78.9
2017-01-11T06:35:50.213Z,79.66
2017-01-11T06:37:00.432Z,79.18
2017-01-11T06:38:10.658Z,79.18
2017-01-11T06:39:20.922Z,79.37
2017-01-11T06:40:31.229Z,79.75
2017-01-11T06:41:41.220Z,79.75
2017-01-11T06:42:51.621Z,79.09
2017-01-11T06:44:01.914Z,79.09
2017-01-11T06:45:12.139Z,78.9
2017-01-11T06:46:22.370Z,79.09
2017-01-11T06:47:32.712Z,78.99
2017-01-11T06:48:42.993Z,79.18
2017-01-11T06:49:53.213Z,78.99
2017-01-11T06:51:03.077Z,79.09
2017-01-11T06:52:13.375Z,79.28
2017-01-11T06:53:23.213Z,79.09
2017-01-11T06:54:33.043Z,79.28
2017-01-11T06:55:43.272Z,79.09
2017-01-11T06:56:53.137Z,78.9
2017-01-11T06:58:02.977Z,79.09
2017-01-11T06:59:13.305Z,78.8
2017-01-11T07:00:23.630Z,78.9
2017-01-11T07:01:33.862Z,78.71
2017-01-11T07:02:43.874Z,78.52
2017-01-11T07:03:53.701Z,78.71
2017-01-11T07:05:03.963Z,78.05
2017-01-11T07:06:14.198Z,78.52
2017-01-11T07:07:24.060Z,78.8
2017-01-11T07:08:34.350Z,78.71
2017-01-11T07:09:44.608Z,78.33
2017-01-11T07:10:54.609Z,78.42
2017-01-11T07:12:04.881Z,77.95
2017-01-11T07:13:30.785Z,78.14
2017-01-11T07:14:41.110Z,77.95
2017-01-11T07:15:51.374Z,78.33
2017-01-11T07:17:01.345Z,78.33
2017-01-11T07:18:11.184Z,77.76
2017-01-11T07:19:21.018Z,77.95
2017-01-11T07:20:31.282Z,77.86
2017-01-11T07:21:41.508Z,77.48
2017-01-11T07:22:51.417Z,77.58
2017-01-11T07:24:01.757Z,77.58
2017-01-11T07:25:12.041Z,77.48
2017-01-11T07:26:22.316Z,77.2
2017-01-11T07:27:32.583Z,77.39
2017-01-11T07:28:42.424Z,77.29
2017-01-11T07:29:51.966Z,77.67
2017-01-11T07:31:02.270Z,77.67
2017-01-11T07:32:12.523Z,77.39
2017-01-11T07:33:22.768Z,77.48
2017-01-11T07:34:32.589Z,77.39
2017-01-11T07:35:42.472Z,77.29
2017-01-11T07:36:52.790Z,77.76
2017-01-11T07:38:03.142Z,76.82
2017-01-11T07:39:13.043Z,76.91
2017-01-11T07:40:23.352Z,76.82
2017-01-11T07:41:33.586Z,77.2
2017-01-11T07:42:43.816Z,77.2
2017-01-11T07:43:53.644Z,76.53
2017-01-11T07:45:03.877Z,76.63
2017-01-11T07:46:14.148Z,76.53
2017-01-11T07:47:24.038Z,76.82
2017-01-11T07:48:34.355Z,76.91
2017-01-11T07:49:44.658Z,76.63
2017-01-11T07:50:54.958Z,76.25
2017-01-11T07:52:05.242Z,76.44
2017-01-11T07:53:15.566Z,76.53
2017-01-11T07:54:25.800Z,76.63
2017-01-11T07:55:35.366Z,76.25
2017-01-11T07:56:45.676Z,76.06
2017-01-11T07:57:55.939Z,76.63
2017-01-11T07:59:06.210Z,75.96
2017-01-11T08:00:15.686Z,76.06
2017-01-11T08:01:25.914Z,76.06
2017-01-11T08:02:35.791Z,75.87
2017-01-11T08:03:45.815Z,76.25
2017-01-11T08:04:56.072Z,76.06
2017-01-11T08:06:06.301Z,76.15
2017-01-11T08:07:16.182Z,75.87
2017-01-11T08:08:26.439Z,76.25
2017-01-11T08:09:36.269Z,76.06
2017-01-11T08:10:46.559Z,75.4
2017-01-11T08:11:56.817Z,76.15
2017-01-11T08:13:05.850Z,76.06
2017-01-11T08:14:15.682Z,76.06
2017-01-11T08:15:25.555Z,75.96
2017-01-11T08:16:35.435Z,76.06
2017-01-11T08:17:44.920Z,76.06
2017-01-11T08:18:54.753Z,75.31
2017-01-11T08:20:04.982Z,75.68
2017-01-11T08:21:15.277Z,75.87
2017-01-11T08:22:25.517Z,75.49
2017-01-11T08:23:35.952Z,75.59
2017-01-11T08:24:45.815Z,75.68
2017-01-11T08:25:55.645Z,75.59
2017-01-11T08:27:05.574Z,75.49
2017-01-11T08:28:15.407Z,75.59
2017-01-11T08:29:25.645Z,75.49
2017-01-11T08:30:35.478Z,75.4
2017-01-11T08:31:45.709Z,75.4
2017-01-11T08:32:55.559Z,75.4
2017-01-11T08:34:05.896Z,75.4
2017-01-11T08:35:16.142Z,75.12
2017-01-11T08:36:26.407Z,75.4
2017-01-11T08:37:36.651Z,75.4
2017-01-11T08:38:46.933Z,75.31
2017-01-11T08:39:57.217Z,75.31
2017-01-11T08:41:07.524Z,75.12
2017-01-11T08:42:17.440Z,75.49
2017-01-11T08:43:27.769Z,75.21
2017-01-11T08:44:38.164Z,75.12
2017-01-11T08:45:48.518Z,75.49
2017-01-11T08:46:58.381Z,75.4
2017-01-11T08:48:08.634Z,75.21
2017-01-11T08:49:18.473Z,75.59
2017-01-11T08:50:28.330Z,75.49
2017-01-11T08:51:38.580Z,75.68
2017-01-11T08:52:48.435Z,75.4
2017-01-11T08:53:58.272Z,75.49
2017-01-11T08:55:08.506Z,75.59
2017-01-11T08:56:18.742Z,75.68
2017-01-11T08:57:28.621Z,75.4
2017-01-11T08:58:38.855Z,75.4
2017-01-11T08:59:49.121Z,75.31
2017-01-11T09:00:58.604Z,75.02
2017-01-11T09:02:08.874Z,75.21
2017-01-11T09:03:18.773Z,74.83
2017-01-11T09:04:29.013Z,74.93
2017-01-11T09:05:38.875Z,74.83
2017-01-11T09:06:49.149Z,74.58
2017-01-11T09:07:59.389Z,74.3
2017-01-11T09:09:09.617Z,73.92
2017-01-11T09:10:20.035Z,74.02
2017-01-11T09:11:29.946Z,73.92
2017-01-11T09:12:39.784Z,73.54
2017-01-11T09:13:49.629Z,73.83
2017-01-11T09:14:59.465Z,73.64
2017-01-11T09:16:09.784Z,73.73
2017-01-11T09:17:19.704Z,73.07
2017-01-11T09:18:29.551Z,73.07
2017-01-11T09:19:39.805Z,73.35
2017-01-11T09:20:49.764Z,72.97
2017-01-11T09:21:59.627Z,72.88
2017-01-11T09:23:09.918Z,73.26
2017-01-11T09:24:20.216Z,73.35
2017-01-11T09:25:30.083Z,73.73
2017-01-11T09:26:39.916Z,73.35
2017-01-11T09:27:50.136Z,73.64
2017-01-11T09:29:00.504Z,73.35
2017-01-11T09:30:10.906Z,73.73
2017-01-11T09:31:20.214Z,73.73
2017-01-11T09:32:30.443Z,73.54
2017-01-11T09:33:40.277Z,73.64
2017-01-11T09:34:50.240Z,73.35
2017-01-11T09:36:00.172Z,73.35
2017-01-11T09:37:10.433Z,73.07
2017-01-11T09:38:20.673Z,73.45
2017-01-11T09:39:30.907Z,73.26
2017-01-11T09:40:40.734Z,73.16
2017-01-11T09:41:50.571Z,72.97
2017-01-11T09:43:00.005Z,73.35
2017-01-11T09:44:10.276Z,73.54
2017-01-11T09:45:20.370Z,73.26
2017-01-11T09:46:30.713Z,73.26
2017-01-11T09:47:41.076Z,73.07
2017-01-11T09:48:51.333Z,73.16
2017-01-11T09:50:01.266Z,73.26
2017-01-11T09:51:11.087Z,73.16
2017-01-11T09:52:20.932Z,73.26
2017-01-11T09:53:30.411Z,72.78
2017-01-11T09:54:40.312Z,72.6
2017-01-11T09:55:50.165Z,72.78
2017-01-11T09:57:00.450Z,72.69
2017-01-11T09:58:10.723Z,72.88
2017-01-11T09:59:20.963Z,72.69
2017-01-11T10:00:30.524Z,72.5
2017-01-11T10:01:40.350Z,72.41
2017-01-11T10:02:50.174Z,72.22
2017-01-11T10:04:00.408Z,72.31
2017-01-11T10:05:10.672Z,72.31
2017-01-11T10:06:20.992Z,72.31
2017-01-11T10:07:30.833Z,72.31
2017-01-11T10:08:41.181Z,72.41
2017-01-11T10:09:51.019Z,71.74
2017-01-11T10:11:00.909Z,71.74
2017-01-11T10:12:11.147Z,72.03
2017-01-11T10:13:20.634Z,71.74
2017-01-11T10:14:30.910Z,72.31
2017-01-11T10:15:40.826Z,72.22
2017-01-11T10:16:50.664Z,72.88
2017-01-11T10:18:00.942Z,72.12
2017-01-11T10:19:11.182Z,72.6
2017-01-11T10:20:21.443Z,72.41
2017-01-11T10:21:31.812Z,72.6
2017-01-11T10:22:42.081Z,72.97
2017-01-11T10:23:52.320Z,72.78
2017-01-11T10:25:02.554Z,72.6
2017-01-11T10:26:12.793Z,72.97
2017-01-11T10:27:23.071Z,72.69
2017-01-11T10:28:32.957Z,73.07
2017-01-11T10:29:42.827Z,73.16
2017-01-11T10:30:52.684Z,73.07
2017-01-11T10:32:02.926Z,73.35
2017-01-11T10:33:12.770Z,73.45
2017-01-11T10:34:22.741Z,73.45
2017-01-11T10:35:32.992Z,73.07
2017-01-11T10:36:42.850Z,73.07
2017-01-11T10:37:52.740Z,73.26
2017-01-11T10:39:02.978Z,73.35
2017-01-11T10:40:12.807Z,73.26
2017-01-11T10:41:23.099Z,72.97
2017-01-11T10:42:33.355Z,73.16
2017-01-11T10:43:43.194Z,72.88
2017-01-11T10:44:53.441Z,72.78
2017-01-11T10:46:03.729Z,73.07
2017-01-11T10:47:14.018Z,72.78
2017-01-11T10:48:23.888Z,72.78
2017-01-11T10:49:34.244Z,72.97
2017-01-11T10:50:43.674Z,72.97
2017-01-11T10:51:53.540Z,72.73
2017-01-11T10:53:03.773Z,72.78
2017-01-11T10:54:14.025Z,72.88
2017-01-11T10:55:24.389Z,72.69
2017-01-11T10:56:34.240Z,72.78
2017-01-11T10:57:44.567Z,73.26
2017-01-11T10:58:54.407Z,73.07
2017-01-11T11:00:03.826Z,72.88
2017-01-11T11:01:13.751Z,73.07
2017-01-11T11:02:23.993Z,72.82
2017-01-11T11:03:34.247Z,72.63
2017-01-11T11:04:44.555Z,71.59
2017-01-11T11:05:54.407Z,70.68
2017-01-11T11:07:04.328Z,70.49
2017-01-11T11:08:14.626Z,70.34
2017-01-11T11:09:24.551Z,68.06
2017-01-11T11:10:34.386Z,67.77
2017-01-11T11:11:44.667Z,67.14
2017-01-11T11:12:54.162Z,65.72
2017-01-11T11:14:04.017Z,65.53
2017-01-11T11:15:13.484Z,65.82
2017-01-11T11:16:23.732Z,65.69
2017-01-11T11:17:33.976Z,66.16
2017-01-11T11:18:43.841Z,66.54
2017-01-11T11:19:54.123Z,67.21
2017-01-11T11:21:03.945Z,67.08
2017-01-11T11:22:14.292Z,67.83
2017-01-11T11:23:24.529Z,67.93
2017-01-11T11:24:34.402Z,68.02
2017-01-11T11:25:44.659Z,68.59
2017-01-11T11:26:54.954Z,68.79
2017-01-11T11:28:05.285Z,69.07
2017-01-11T11:29:15.613Z,69.45
2017-01-11T11:30:25.883Z,69.41
2017-01-11T11:31:36.116Z,69.6
2017-01-11T11:32:46.349Z,69.89
2017-01-11T11:33:56.208Z,70.36
2017-01-11T11:35:06.484Z,70.26
2017-01-11T11:36:15.978Z,70.36
2017-01-11T11:37:26.481Z,70.83
2017-01-11T11:38:35.915Z,71.21
2017-01-11T11:39:46.204Z,71.21
2017-01-11T11:40:56.446Z,71.31
2017-01-11T11:42:06.719Z,71.21
2017-01-11T11:43:16.573Z,71.88
2017-01-11T11:44:26.413Z,71.69
2017-01-11T11:45:36.691Z,71.97
2017-01-11T11:46:46.562Z,71.78
2017-01-11T11:47:56.929Z,71.88
2017-01-11T11:49:06.358Z,71.88
2017-01-11T11:50:16.591Z,72.34
2017-01-11T11:51:26.029Z,72.63
2017-01-11T11:52:35.928Z,72.82
2017-01-11T11:53:45.384Z,73.11
2017-01-11T11:54:55.225Z,73.3
2017-01-11T11:56:05.060Z,73.58
2017-01-11T11:57:15.394Z,73.96
2017-01-11T11:58:25.650Z,73.58
2017-01-11T11:59:35.883Z,73.96
2017-01-11T12:00:46.142Z,73.96
2017-01-11T12:01:56.414Z,74.15
2017-01-11T12:03:06.254Z,74.62
2017-01-11T12:04:15.680Z,74.87
2017-01-11T12:05:25.681Z,74.4
2017-01-11T12:06:35.525Z,74.9
2017-01-11T12:07:45.757Z,74.58
2017-01-11T12:08:56.119Z,75.24
2017-01-11T12:10:06.043Z,75.72
2017-01-11T12:11:16.373Z,75.62
2017-01-11T12:12:26.233Z,75.91
2017-01-11T12:13:36.562Z,76.38
2017-01-11T12:14:46.869Z,76.1
2017-01-11T12:15:56.320Z,76.76
2017-01-11T12:17:06.154Z,77.61
2017-01-11T12:18:16.421Z,77.33
2017-01-11T12:19:26.289Z,77.89
2017-01-11T12:20:36.181Z,77.89
2017-01-11T12:21:46.398Z,78.56
2017-01-11T12:22:56.617Z,78.94
2017-01-11T12:24:06.886Z,79.03
2017-01-11T12:25:16.757Z,79.88
2017-01-11T12:26:27.037Z,79.79
2017-01-11T12:27:37.289Z,80.36
2017-01-11T12:28:46.777Z,80.83
2017-01-11T12:29:56.252Z,80.26
2017-01-11T12:31:06.637Z,81.12
2017-01-11T12:32:16.453Z,81.77
2017-01-11T12:33:25.947Z,81.77
2017-01-11T12:34:36.177Z,82.34
2017-01-11T12:35:46.440Z,82.91
2017-01-11T12:36:56.682Z,83.72
2017-01-11T12:38:06.958Z,83.48
2017-01-11T12:39:16.914Z,83.91
2017-01-11T12:40:27.142Z,84.1
2017-01-11T12:41:37.389Z,84.29
2017-01-11T12:42:47.289Z,84.39
2017-01-11T12:43:57.520Z,85.52
2017-01-11T12:45:07.376Z,85.14
2017-01-11T12:46:16.405Z,85.42
2017-01-11T12:47:26.284Z,85.71
2017-01-11T12:48:36.125Z,85.99
2017-01-11T12:49:46.381Z,86.09
2017-01-11T12:50:56.313Z,86.37
2017-01-11T12:52:06.550Z,86.47
2017-01-11T12:53:16.368Z,86.66
2017-01-11T12:54:25.851Z,86.85
2017-01-11T12:55:35.725Z,86.94
2017-01-11T12:56:45.548Z,87.32
2017-01-11T12:57:55.428Z,87.23
2017-01-11T12:59:05.275Z,87.41
2017-01-11T13:00:14.690Z,87.32
2017-01-11T13:01:24.576Z,87.23
2017-01-11T13:02:34.844Z,87.51
2017-01-11T13:03:44.730Z,87.32
2017-01-11T13:04:54.556Z,87.32
2017-01-11T13:06:04.820Z,87.32
2017-01-11T13:07:14.675Z,87.41
2017-01-11T13:08:24.500Z,87.41
2017-01-11T13:09:34.464Z,87.32
2017-01-11T13:10:44.355Z,87.51
2017-01-11T13:11:54.189Z,87.04
2017-01-11T13:13:03.383Z,88.02
2017-01-11T13:14:13.613Z,88.26
2017-01-11T13:15:23.910Z,87.98
2017-01-11T13:16:34.184Z,88.07
2017-01-11T13:17:44.093Z,88.55
2017-01-11T13:18:54.336Z,88.26
2017-01-11T13:20:04.599Z,88.45
2017-01-11T13:21:14.565Z,88.55
2017-01-11T13:22:24.397Z,88.64
2017-01-11T13:23:34.648Z,88.74
2017-01-11T13:24:44.547Z,88.55
2017-01-11T13:25:54.846Z,88.83
2017-01-11T13:27:05.277Z,88.26
2017-01-11T13:28:15.554Z,88.74
2017-01-11T13:29:25.838Z,88.26
2017-01-11T13:30:35.675Z,88.87
2017-01-11T13:31:45.911Z,89.16
2017-01-11T13:32:55.343Z,88.68
2017-01-11T13:34:05.207Z,88.4
2017-01-11T13:35:15.103Z,88.87
2017-01-11T13:36:24.536Z,88.87
2017-01-11T13:37:34.872Z,88.49
2017-01-11T13:38:44.953Z,88.68
2017-01-11T13:39:55.222Z,89.16
2017-01-11T13:41:05.099Z,89.12
2017-01-11T13:42:15.352Z,88.97
2017-01-11T13:43:25.210Z,89.21
2017-01-11T13:44:34.862Z,89.16
2017-01-11T13:45:45.225Z,89.25
2017-01-11T13:46:55.151Z,89.06
2017-01-11T13:48:04.987Z,89.35
2017-01-11T13:49:15.273Z,89.44
2017-01-11T13:50:25.631Z,89.63
2017-01-11T13:51:35.952Z,89.44
2017-01-11T13:52:46.180Z,89.25
2017-01-11T13:53:56.033Z,89.44
2017-01-11T13:55:06.355Z,89.63
2017-01-11T13:56:16.583Z,89.92
2017-01-11T13:57:26.814Z,89.35
2017-01-11T13:58:36.700Z,89.63
2017-01-11T13:59:46.941Z,89.73
2017-01-11T14:00:56.793Z,89.82
2017-01-11T14:02:06.361Z,90.3
2017-01-11T14:03:16.698Z,90.01
2017-01-11T14:04:26.146Z,90.01
2017-01-11T14:05:36.395Z,89.82
2017-01-11T14:06:46.262Z,90.11
2017-01-11T14:07:56.612Z,90.11
2017-01-11T14:09:06.942Z,89.63
2017-01-11T14:10:17.334Z,89.92
2017-01-11T14:11:27.643Z,89.92
2017-01-11T14:12:38.008Z,90.11
2017-01-11T14:13:47.934Z,89.73
2017-01-11T14:14:58.177Z,89.82
2017-01-11T14:16:08.545Z,89.92
2017-01-11T14:17:18.780Z,89.63
2017-01-11T14:18:28.612Z,89.92
2017-01-11T14:19:38.924Z,90.01
2017-01-11T14:20:48.761Z,89.82
2017-01-11T14:21:58.223Z,90.2
2017-01-11T14:23:08.085Z,90.01
2017-01-11T14:24:18.371Z,90.01
2017-01-11T14:25:28.971Z,90.3
2017-01-11T14:26:38.786Z,89.63
2017-01-11T14:27:49.099Z,89.92
2017-01-11T14:28:59.376Z,90.2
2017-01-11T14:30:08.914Z,90.01
2017-01-11T14:31:18.334Z,89.63
2017-01-11T14:32:28.184Z,89.63
2017-01-11T14:33:38.454Z,89.73
2017-01-11T14:34:48.317Z,89.87
2017-01-11T14:35:58.625Z,89.11
2017-01-11T14:37:08.065Z,89.39
2017-01-11T14:38:17.544Z,89.3
2017-01-11T14:39:27.442Z,89.3
2017-01-11T14:40:37.705Z,89.49
2017-01-11T14:41:47.942Z,89.68
2017-01-11T14:42:57.766Z,89.58
2017-01-11T14:44:08.012Z,89.11
2017-01-11T14:45:17.468Z,89.3
2017-01-11T14:46:27.771Z,89.39
2017-01-11T14:47:37.225Z,89.49
2017-01-11T14:48:47.100Z,88.92
2017-01-11T14:49:56.568Z,89.3
2017-01-11T14:51:06.408Z,89.2
2017-01-11T14:52:16.652Z,88.92
2017-01-11T14:53:26.470Z,89.01
2017-01-11T14:54:36.420Z,89.11
2017-01-11T14:55:46.258Z,89.3
2017-01-11T14:56:55.305Z,88.82
2017-01-11T14:58:05.134Z,88.82
2017-01-11T14:59:14.574Z,88.82
2017-01-11T15:00:24.426Z,89.2
2017-01-11T15:01:34.703Z,89.01
2017-01-11T15:02:44.662Z,88.92
2017-01-11T15:03:54.943Z,88.73
2017-01-11T15:05:04.800Z,89.01